Darlington, New Jersey
Current Conditions -  °F | °C
As of 5:51 PM on Friday 28 Nov 2014 (Local Time) from KTEB Reporting Station
Clear Clear  
Wind Chill: -4°   Ceiling: Unl
Heat Index: -1°   Visibility: 10mi
Dew Point: -10°   Wind: 5mph
Humidity: 51%   Direction: 310°NW
Pressure: 30.23"   Gusts: NA
Location:  41.0594°N, 74.1457°W
Report Text: KTEB 282251Z 31004KT 10SM CLR M01/M10 A3023 RMK AO2 SLP236 T10111100 $
Loading
Personal Weather Stations






























Interactive Weather Map New forecast layout! Learn more

10-Day Weather Forecast

Advertisements
Track Severe Weather on mobile